createdAt,value
2023-02-05T05:00:58.815Z,3.42
2023-02-05T05:03:26.768Z,3.15
2023-02-05T05:05:54.143Z,3.90
2023-02-05T05:08:20.850Z,3.45
2023-02-05T05:10:47.858Z,3.40
2023-02-05T05:13:15.105Z,3.72
2023-02-05T05:15:41.826Z,3.75
2023-02-05T05:18:08.705Z,3.05
2023-02-05T05:20:35.399Z,3.67
2023-02-05T05:23:02.960Z,4.97
2023-02-05T05:25:30.006Z,3.08
2023-02-05T05:27:56.961Z,4.47
2023-02-05T05:30:24.166Z,3.40
2023-02-05T05:32:51.183Z,3.25
2023-02-05T05:35:18.101Z,2.95
2023-02-05T05:37:45.345Z,2.35
2023-02-05T05:40:31.162Z,4.03
2023-02-05T05:43:16.985Z,2.95
2023-02-05T05:45:44.320Z,3.45
2023-02-05T05:48:11.378Z,5.72
2023-02-05T05:50:38.080Z,3.80
2023-02-05T05:53:05.386Z,3.30
2023-02-05T05:55:34.485Z,3.88
2023-02-05T05:58:01.694Z,3.00
2023-02-05T06:00:28.604Z,3.95
2023-02-05T06:02:55.395Z,4.20
2023-02-05T06:05:22.353Z,4.05
2023-02-05T06:07:49.588Z,3.63
2023-02-05T06:10:16.285Z,3.85
2023-02-05T06:12:42.951Z,3.00
2023-02-05T06:15:10.269Z,3.22
2023-02-05T06:17:37.232Z,3.22
2023-02-05T06:20:05.599Z,3.10
2023-02-05T06:22:32.670Z,2.70
2023-02-05T06:24:59.498Z,3.00
2023-02-05T06:27:26.480Z,3.35
2023-02-05T06:29:53.338Z,3.22
2023-02-05T06:32:21.723Z,3.22
2023-02-05T06:34:49.116Z,2.60
2023-02-05T06:37:16.125Z,3.72
2023-02-05T06:39:43.265Z,3.38
2023-02-05T06:42:10.310Z,3.25
2023-02-05T06:44:37.626Z,3.30
2023-02-05T06:47:04.323Z,3.13
2023-02-05T06:49:30.958Z,3.67
2023-02-05T06:51:58.111Z,3.28
2023-02-05T06:54:25.239Z,2.85
2023-02-05T06:56:52.417Z,2.70
2023-02-05T06:59:19.076Z,2.72
2023-02-05T07:01:47.163Z,3.80
2023-02-05T07:04:13.761Z,2.83
2023-02-05T07:06:40.852Z,2.88
2023-02-05T07:09:08.395Z,3.05
2023-02-05T07:11:35.037Z,2.97
2023-02-05T07:14:02.524Z,3.33
2023-02-05T07:16:31.951Z,3.45
2023-02-05T07:18:58.928Z,4.32
2023-02-05T07:21:26.355Z,4.93
2023-02-05T07:23:53.123Z,4.57
2023-02-05T07:26:19.754Z,4.55
2023-02-05T07:28:46.811Z,5.05
2023-02-05T07:31:16.218Z,5.68
2023-02-05T07:33:43.257Z,4.38
2023-02-05T07:36:11.593Z,4.43
2023-02-05T07:38:38.538Z,5.10
2023-02-05T07:41:09.151Z,4.47
2023-02-05T07:43:35.863Z,3.97
2023-02-05T07:46:04.850Z,5.95
2023-02-05T07:48:31.984Z,3.30
2023-02-05T07:50:58.832Z,3.20
2023-02-05T07:53:25.542Z,4.13
2023-02-05T07:55:52.227Z,4.53
2023-02-05T07:58:18.987Z,3.13
2023-02-05T08:00:45.827Z,3.75
2023-02-05T08:03:12.735Z,4.80
2023-02-05T08:05:39.891Z,4.22
2023-02-05T08:08:07.339Z,3.05
2023-02-05T08:10:34.545Z,3.67
2023-02-05T08:13:01.650Z,5.60
2023-02-05T08:15:29.775Z,3.95
2023-02-05T08:17:57.313Z,3.95
2023-02-05T08:20:23.980Z,3.22
2023-02-05T08:22:50.684Z,4.03
2023-02-05T08:25:17.762Z,3.53
2023-02-05T08:27:46.112Z,3.60
2023-02-05T08:30:15.775Z,3.33
2023-02-05T08:32:42.902Z,4.20
2023-02-05T08:35:09.937Z,4.40
2023-02-05T08:37:36.587Z,4.20
2023-02-05T08:40:04.064Z,5.80
2023-02-05T08:42:31.077Z,6.22
2023-02-05T08:44:59.430Z,5.07
2023-02-05T08:47:26.547Z,5.72
2023-02-05T08:49:54.077Z,6.47
2023-02-05T08:52:20.793Z,5.70
2023-02-05T08:54:48.215Z,4.45
2023-02-05T08:57:16.501Z,3.78
2023-02-05T08:59:44.154Z,5.40
2023-02-05T09:02:14.765Z,5.15
2023-02-05T09:04:41.892Z,4.63
2023-02-05T09:07:08.921Z,4.30
2023-02-05T09:09:36.924Z,3.58
2023-02-05T09:12:04.442Z,5.35
2023-02-05T09:14:37.766Z,5.22
2023-02-05T09:17:05.246Z,4.53
2023-02-05T09:19:36.017Z,4.63
2023-02-05T09:22:03.014Z,5.22
2023-02-05T09:24:32.196Z,4.05
2023-02-05T09:26:59.339Z,4.43
2023-02-05T09:29:26.476Z,4.63
2023-02-05T09:31:55.689Z,5.57
2023-02-05T09:34:22.450Z,5.28
2023-02-05T09:36:49.794Z,6.50
2023-02-05T09:39:44.056Z,5.05
2023-02-05T09:42:09.491Z,5.68
2023-02-05T09:47:14.906Z,7.43
2023-02-05T09:49:47.637Z,5.97
2023-02-05T09:52:22.669Z,5.38
2023-02-05T09:54:52.578Z,6.38
2023-02-05T09:57:27.548Z,5.43
2023-02-05T09:59:54.911Z,4.90
2023-02-05T10:02:27.324Z,5.65
2023-02-05T10:04:55.143Z,5.80
2023-02-05T10:07:50.730Z,6.88
2023-02-05T10:10:23.826Z,6.55
2023-02-05T10:13:24.513Z,6.00
2023-02-05T10:16:02.762Z,6.57
2023-02-05T10:18:37.991Z,5.82
2023-02-05T10:21:17.188Z,6.57
2023-02-05T10:24:21.497Z,4.97
2023-02-05T10:27:00.487Z,5.22
2023-02-05T10:29:39.050Z,6.82
2023-02-05T10:32:20.353Z,6.85
2023-02-05T10:34:59.798Z,6.28
2023-02-05T10:37:46.411Z,7.22
2023-02-05T10:40:17.787Z,6.95
2023-02-05T10:42:49.908Z,6.13
2023-02-05T10:45:27.091Z,7.43
2023-02-05T10:48:02.740Z,6.13
2023-02-05T10:50:45.372Z,5.32
2023-02-05T10:53:12.510Z,6.15
2023-02-05T10:55:39.304Z,5.13
2023-02-05T10:58:31.650Z,4.40
2023-02-05T11:01:00.240Z,8.82
2023-02-05T11:03:26.941Z,4.95
2023-02-05T11:05:56.298Z,8.70
2023-02-05T11:08:33.652Z,8.10
2023-02-05T11:11:00.476Z,15.27
2023-02-05T11:13:28.323Z,9.43
2023-02-05T11:16:06.656Z,9.73
2023-02-05T11:18:36.737Z,9.88
2023-02-05T11:21:04.115Z,9.30
2023-02-05T11:23:39.763Z,10.73
2023-02-05T11:26:28.810Z,8.65
2023-02-05T11:28:56.111Z,8.07
2023-02-05T11:31:26.885Z,7.32
2023-02-05T11:34:08.656Z,9.90
2023-02-05T11:36:40.205Z,28.30
2023-02-05T11:39:07.059Z,11.23
2023-02-05T11:41:48.504Z,11.60
2023-02-05T11:44:21.998Z,8.45
2023-02-05T11:46:49.402Z,12.27
2023-02-05T11:49:21.416Z,8.32
2023-02-05T11:51:49.771Z,10.63
2023-02-05T11:54:21.361Z,6.88
2023-02-05T11:57:28.406Z,6.65
2023-02-05T12:00:03.827Z,8.90
2023-02-05T12:02:33.255Z,8.70
2023-02-05T12:05:24.268Z,7.45
2023-02-05T12:08:09.257Z,9.90
2023-02-05T12:10:54.040Z,9.43
2023-02-05T12:13:43.621Z,6.95
2023-02-05T12:16:48.829Z,8.50
2023-02-05T12:19:19.859Z,8.77
2023-02-05T12:22:08.391Z,7.07
2023-02-05T12:24:54.003Z,8.00
2023-02-05T12:27:42.570Z,9.35
2023-02-05T12:30:37.947Z,10.80
2023-02-05T12:33:24.670Z,8.10
2023-02-05T12:36:00.678Z,7.05
2023-02-05T12:38:36.869Z,7.60
2023-02-05T12:41:06.489Z,6.03
2023-02-05T12:43:41.094Z,6.35
2023-02-05T12:46:21.007Z,7.35
2023-02-05T12:49:00.694Z,9.45
2023-02-05T12:51:59.734Z,11.32
2023-02-05T12:54:49.229Z,22.08
2023-02-05T12:57:20.754Z,8.40
2023-02-05T12:59:56.044Z,11.23
2023-02-05T13:02:37.159Z,12.70
2023-02-05T13:05:28.640Z,25.15
2023-02-05T13:08:06.263Z,13.90
2023-02-05T13:10:51.013Z,20.95
2023-02-05T13:13:22.186Z,18.73
2023-02-05T13:16:01.992Z,18.23
2023-02-05T13:18:37.440Z,16.85
2023-02-05T13:21:24.730Z,14.50
2023-02-05T13:24:39.954Z,16.35
2023-02-05T13:27:43.639Z,15.23
2023-02-05T13:32:43.725Z,15.85
2023-02-05T13:35:10.697Z,12.90
2023-02-05T13:37:52.121Z,13.55
2023-02-05T13:40:52.516Z,14.20
2023-02-05T13:43:52.850Z,16.63
2023-02-05T13:47:08.649Z,11.27
2023-02-05T13:49:58.828Z,13.27
2023-02-05T13:52:53.285Z,11.82
2023-02-05T13:55:41.461Z,13.52
2023-02-05T13:58:29.671Z,12.98
2023-02-05T14:01:07.194Z,10.32
2023-02-05T14:03:38.527Z,12.40
2023-02-05T14:06:16.363Z,47.08
2023-02-05T14:08:44.137Z,42.47
2023-02-05T14:11:11.793Z,24.20
2023-02-05T14:13:38.665Z,23.27
2023-02-05T14:16:23.940Z,24.65
2023-02-05T14:18:51.385Z,23.80
2023-02-05T14:21:30.523Z,22.67
2023-02-05T14:23:59.868Z,23.95
2023-02-05T14:26:54.856Z,17.90
2023-02-05T14:29:43.686Z,17.00
2023-02-05T14:32:34.216Z,17.80
2023-02-05T14:35:01.684Z,18.33
2023-02-05T14:37:42.754Z,19.50
2023-02-05T14:40:20.221Z,15.18
2023-02-05T14:42:46.828Z,16.92
2023-02-05T14:45:17.380Z,17.17
2023-02-05T14:47:47.802Z,15.65
2023-02-05T14:50:32.572Z,15.98
2023-02-05T14:53:00.782Z,18.30
2023-02-05T14:55:40.711Z,14.60
2023-02-05T14:58:11.160Z,12.88
2023-02-05T15:00:39.364Z,14.02
2023-02-05T15:03:06.295Z,13.45
2023-02-05T15:05:45.573Z,15.57
2023-02-05T15:08:21.606Z,17.42
2023-02-05T15:11:00.179Z,13.65
2023-02-05T15:13:26.898Z,14.95
2023-02-05T15:16:12.118Z,12.82
2023-02-05T15:18:49.241Z,11.00
2023-02-05T15:21:42.499Z,15.43
2023-02-05T15:24:20.147Z,14.50
2023-02-05T15:27:14.045Z,13.00
2023-02-05T15:29:42.638Z,10.98
2023-02-05T15:32:22.355Z,11.15
2023-02-05T15:34:51.676Z,11.65
2023-02-05T15:37:36.913Z,13.57
2023-02-05T15:40:09.943Z,12.60
2023-02-05T15:42:41.130Z,17.15
2023-02-05T15:45:27.611Z,18.50
2023-02-05T15:48:06.221Z,15.70
2023-02-05T15:50:37.965Z,17.35
2023-02-05T15:53:08.027Z,20.90
2023-02-05T15:55:34.992Z,17.83
2023-02-05T15:58:06.305Z,18.25
2023-02-05T16:00:34.372Z,15.75
2023-02-05T16:03:02.449Z,18.52
2023-02-05T16:05:30.365Z,21.17
2023-02-05T16:08:02.185Z,16.75
2023-02-05T16:10:33.925Z,14.57
2023-02-05T16:13:14.637Z,18.80
2023-02-05T16:15:45.785Z,18.33
2023-02-05T16:18:25.637Z,16.40
2023-02-05T16:20:54.366Z,16.73
2023-02-05T16:23:29.192Z,19.42
2023-02-05T16:25:58.102Z,17.98
2023-02-05T16:28:40.452Z,21.13
2023-02-05T16:31:07.694Z,18.57
2023-02-05T16:34:22.534Z,15.73
2023-02-05T16:36:50.484Z,14.48
2023-02-05T16:39:30.291Z,13.07
2023-02-05T16:42:08.612Z,13.05
2023-02-05T16:44:37.642Z,10.88
2023-02-05T16:47:14.556Z,10.02
2023-02-05T16:49:42.169Z,10.40
2023-02-05T16:52:35.689Z,17.27
2023-02-05T16:57:56.164Z,12.25
2023-02-05T17:00:27.753Z,16.83
2023-02-05T17:02:58.149Z,22.63
2023-02-05T17:05:32.119Z,11.48
2023-02-05T17:08:04.440Z,14.10
2023-02-05T17:10:31.631Z,11.77
2023-02-05T17:13:01.139Z,14.73
2023-02-05T17:15:30.475Z,13.73
2023-02-05T17:17:59.321Z,14.95
2023-02-05T17:20:27.936Z,11.98
2023-02-05T17:23:00.125Z,11.63
2023-02-05T17:25:31.947Z,12.20
2023-02-05T17:27:59.155Z,12.10
2023-02-05T17:30:27.018Z,13.13
2023-02-05T17:32:55.262Z,9.55
2023-02-05T17:35:22.806Z,12.02
2023-02-05T17:37:55.893Z,12.07
2023-02-05T17:40:23.243Z,13.45
2023-02-05T17:42:50.080Z,12.02
2023-02-05T17:45:23.990Z,11.38
2023-02-05T17:47:50.821Z,15.40
2023-02-05T17:50:17.718Z,9.75
2023-02-05T17:52:45.472Z,13.82
2023-02-05T17:55:14.619Z,10.00
2023-02-05T17:57:43.710Z,8.68
2023-02-05T18:00:15.546Z,10.57
2023-02-05T18:02:42.969Z,15.45
2023-02-05T18:05:11.950Z,10.45
2023-02-05T18:08:01.373Z,13.45
2023-02-05T18:10:33.440Z,9.98
2023-02-05T18:13:00.159Z,11.87
2023-02-05T18:15:27.944Z,12.23
2023-02-05T18:17:54.714Z,13.40
2023-02-05T18:20:21.871Z,11.93
2023-02-05T18:22:49.236Z,10.23
2023-02-05T18:25:16.860Z,15.77
2023-02-05T18:27:52.005Z,8.93
2023-02-05T18:30:19.270Z,8.57
2023-02-05T18:32:49.722Z,11.23
2023-02-05T18:35:20.165Z,11.00
2023-02-05T18:37:49.585Z,9.10
2023-02-05T18:40:17.199Z,11.13
2023-02-05T18:42:47.282Z,9.02
2023-02-05T18:45:14.119Z,8.65
2023-02-05T18:47:41.248Z,11.75
2023-02-05T18:50:10.254Z,13.75
2023-02-05T18:52:37.649Z,9.88
2023-02-05T18:55:06.102Z,8.85
2023-02-05T18:57:33.530Z,10.68
2023-02-05T19:00:01.378Z,13.55
2023-02-05T19:02:28.974Z,12.63
2023-02-05T19:04:59.701Z,15.10
2023-02-05T19:07:29.115Z,12.00
2023-02-05T19:09:59.474Z,14.40
2023-02-05T19:12:29.172Z,13.80
2023-02-05T19:15:05.523Z,11.00
2023-02-05T19:17:36.522Z,14.07
2023-02-05T19:20:08.300Z,11.30
2023-02-05T19:22:35.379Z,15.93
2023-02-05T19:25:02.759Z,10.48
2023-02-05T19:27:29.847Z,10.85
2023-02-05T19:29:56.906Z,8.60
2023-02-05T19:32:24.353Z,9.98
2023-02-05T19:34:51.670Z,10.52
2023-02-05T19:37:19.368Z,10.45
2023-02-05T19:39:46.869Z,9.10
2023-02-05T19:42:18.787Z,10.57
2023-02-05T19:44:46.584Z,9.00
2023-02-05T19:47:17.093Z,8.77
2023-02-05T19:49:46.373Z,9.10
2023-02-05T19:52:13.982Z,10.18
2023-02-05T19:54:41.376Z,11.15
2023-02-05T19:57:08.435Z,9.52
2023-02-05T19:59:37.209Z,9.18
2023-02-05T20:02:05.513Z,7.38
2023-02-05T20:04:32.788Z,9.88
2023-02-05T20:07:00.685Z,8.63
2023-02-05T20:09:28.824Z,7.28
2023-02-05T20:11:59.391Z,9.57
2023-02-05T20:14:27.001Z,9.05
2023-02-05T20:16:54.065Z,10.10
2023-02-05T20:19:21.075Z,7.65
2023-02-05T20:21:48.698Z,8.82
2023-02-05T20:24:17.227Z,8.57
2023-02-05T20:26:45.290Z,8.13
2023-02-05T20:29:32.132Z,8.68
2023-02-05T20:32:02.052Z,9.63
2023-02-05T20:34:35.331Z,11.10
2023-02-05T20:37:06.100Z,7.53
2023-02-05T20:39:34.958Z,8.60
2023-02-05T20:42:02.176Z,7.90
2023-02-05T20:44:30.172Z,8.43
2023-02-05T20:46:57.320Z,6.50
2023-02-05T20:49:25.391Z,8.73
2023-02-05T20:51:53.565Z,7.53
2023-02-05T20:54:22.334Z,7.55
2023-02-05T20:56:51.181Z,7.07
2023-02-05T20:59:18.337Z,8.00
2023-02-05T21:01:45.294Z,9.02
2023-02-05T21:04:12.809Z,7.05
2023-02-05T21:06:40.065Z,6.82
2023-02-05T21:09:08.710Z,7.07
2023-02-05T21:11:35.968Z,8.15
2023-02-05T21:14:06.059Z,8.98
2023-02-05T21:16:36.921Z,5.90
2023-02-05T21:19:06.859Z,6.05
2023-02-05T21:21:35.446Z,7.93
2023-02-05T21:24:07.726Z,8.68
2023-02-05T21:26:39.384Z,6.80
2023-02-05T21:29:13.170Z,8.30
2023-02-05T21:31:42.028Z,6.78
2023-02-05T21:34:11.664Z,6.88
2023-02-05T21:36:39.157Z,7.88
2023-02-05T21:39:06.281Z,7.25
2023-02-05T21:41:33.234Z,6.13
2023-02-05T21:44:02.935Z,7.28
2023-02-05T21:46:29.951Z,7.63
2023-02-05T21:48:57.937Z,8.07
2023-02-05T21:51:27.588Z,6.72
2023-02-05T21:53:57.498Z,7.80
2023-02-05T21:59:15.696Z,5.88
2023-02-05T22:01:42.617Z,6.35
2023-02-05T22:04:14.540Z,8.23
2023-02-05T22:06:44.242Z,6.25
2023-02-05T22:09:13.076Z,5.72
2023-02-05T22:11:40.443Z,7.30
2023-02-05T22:14:07.399Z,6.35
2023-02-05T22:16:34.316Z,7.10
2023-02-05T22:19:01.197Z,6.70
2023-02-05T22:21:33.011Z,5.32
2023-02-05T22:24:00.597Z,6.50
2023-02-05T22:26:29.397Z,5.32
2023-02-05T22:28:59.465Z,5.50
